createdAt,value
2023-02-03T00:00:08.127Z,954.02
2023-02-03T00:00:19.112Z,954.01
2023-02-03T00:00:31.112Z,954.01
2023-02-03T00:00:42.085Z,953.99
2023-02-03T00:00:53.128Z,953.97
2023-02-03T00:01:04.097Z,953.96
2023-02-03T00:01:15.086Z,953.96
2023-02-03T00:01:27.102Z,953.96
2023-02-03T00:01:38.182Z,953.96
2023-02-03T00:01:50.187Z,953.95
2023-02-03T00:02:01.145Z,953.96
2023-02-03T00:02:12.180Z,953.96
2023-02-03T00:02:24.122Z,953.95
2023-02-03T00:02:36.161Z,953.95
2023-02-03T00:02:48.159Z,953.94
2023-02-03T00:02:59.196Z,953.94
2023-02-03T00:03:11.225Z,953.92
2023-02-03T00:03:22.162Z,953.92
2023-02-03T00:03:34.132Z,953.93
2023-02-03T00:03:45.079Z,953.93
2023-02-03T00:03:56.132Z,953.92
2023-02-03T00:04:07.124Z,953.92
2023-02-03T00:04:18.085Z,953.93
2023-02-03T00:04:29.161Z,953.94
2023-02-03T00:04:41.167Z,953.95
2023-02-03T00:04:53.083Z,953.95
2023-02-03T00:05:04.132Z,953.93
2023-02-03T00:05:15.091Z,953.91
2023-02-03T00:05:26.123Z,953.90
2023-02-03T00:05:37.123Z,953.90
2023-02-03T00:05:49.126Z,953.89
2023-02-03T00:06:00.141Z,953.88
2023-02-03T00:06:11.099Z,953.89
2023-02-03T00:06:22.148Z,953.88
2023-02-03T00:06:33.109Z,953.87
2023-02-03T00:06:44.166Z,953.86
2023-02-03T00:06:56.177Z,953.86
2023-02-03T00:07:08.079Z,953.87
2023-02-03T00:07:19.126Z,953.88
2023-02-03T00:07:31.139Z,953.89
2023-02-03T00:07:43.128Z,953.90
2023-02-03T00:07:54.108Z,953.88
2023-02-03T00:08:06.129Z,953.88
2023-02-03T00:08:17.104Z,953.89
2023-02-03T00:08:28.157Z,953.89
2023-02-03T00:08:39.130Z,953.91
2023-02-03T00:08:50.088Z,953.92
2023-02-03T00:09:01.149Z,953.93
2023-02-03T00:09:13.155Z,953.92
2023-02-03T00:09:24.112Z,953.90
2023-02-03T00:09:36.122Z,953.88
2023-02-03T00:09:48.130Z,953.86
2023-02-03T00:10:00.219Z,953.87
2023-02-03T00:10:12.126Z,953.88
2023-02-03T00:10:24.385Z,953.90
2023-02-03T00:10:36.120Z,953.89
2023-02-03T00:10:48.129Z,953.87
2023-02-03T00:10:59.089Z,953.86
2023-02-03T00:11:11.104Z,953.86
2023-02-03T00:11:22.084Z,953.89
2023-02-03T00:11:33.127Z,953.90
2023-02-03T00:11:44.087Z,953.89
2023-02-03T00:11:55.149Z,953.89
2023-02-03T00:12:06.110Z,953.85
2023-02-03T00:12:18.118Z,953.81
2023-02-03T00:12:29.094Z,953.82
2023-02-03T00:12:40.079Z,953.83
2023-02-03T00:12:51.128Z,953.84
2023-02-03T00:13:03.146Z,953.83
2023-02-03T00:13:15.145Z,953.78
2023-02-03T00:13:27.177Z,953.78
2023-02-03T00:13:38.124Z,953.78
2023-02-03T00:13:50.158Z,953.80
2023-02-03T00:14:01.123Z,953.82
2023-02-03T00:14:13.122Z,953.78
2023-02-03T00:14:25.138Z,953.78
2023-02-03T00:14:37.143Z,953.80
2023-02-03T00:14:49.138Z,953.80
2023-02-03T00:15:01.217Z,953.82
2023-02-03T00:15:13.127Z,953.82
2023-02-03T00:15:25.137Z,953.78
2023-02-03T00:15:37.145Z,953.78
2023-02-03T00:15:49.162Z,953.78
2023-02-03T00:16:01.122Z,953.77
2023-02-03T00:16:12.143Z,953.75
2023-02-03T00:16:23.132Z,953.76
2023-02-03T00:16:34.195Z,953.79
2023-02-03T00:16:45.136Z,953.80
2023-02-03T00:16:56.128Z,953.79
2023-02-03T00:17:07.075Z,953.76
2023-02-03T00:17:18.139Z,953.73
2023-02-03T00:17:29.109Z,953.73
2023-02-03T00:17:41.122Z,953.74
2023-02-03T00:17:52.100Z,953.74
2023-02-03T00:18:03.098Z,953.74
2023-02-03T00:18:14.161Z,953.77
2023-02-03T00:18:25.125Z,953.77
2023-02-03T00:18:37.128Z,953.73
2023-02-03T00:18:48.091Z,953.73
2023-02-03T00:19:00.139Z,953.73
2023-02-03T00:19:11.113Z,953.74
2023-02-03T00:19:22.172Z,953.74
2023-02-03T00:19:34.092Z,953.73
2023-02-03T00:19:46.032Z,953.72
2023-02-03T00:19:57.104Z,953.71
2023-02-03T00:20:08.167Z,953.70
2023-02-03T00:20:19.133Z,953.71
2023-02-03T00:20:30.084Z,953.72
2023-02-03T00:20:42.097Z,953.72
2023-02-03T00:20:53.161Z,953.71
2023-02-03T00:21:04.131Z,953.71
2023-02-03T00:21:16.135Z,953.70
2023-02-03T00:21:28.154Z,953.70
2023-02-03T00:21:40.172Z,953.71
2023-02-03T00:21:51.119Z,953.71
2023-02-03T00:22:03.124Z,953.73
2023-02-03T00:22:15.157Z,953.73
2023-02-03T00:22:26.100Z,953.73
2023-02-03T00:22:37.076Z,953.73
2023-02-03T00:22:48.119Z,953.72
2023-02-03T00:23:00.138Z,953.70
2023-02-03T00:23:12.144Z,953.71
2023-02-03T00:23:24.150Z,953.75
2023-02-03T00:23:36.148Z,953.75
2023-02-03T00:23:47.122Z,953.75
2023-02-03T00:23:59.128Z,953.75
2023-02-03T00:24:11.141Z,953.74
2023-02-03T00:24:22.109Z,953.74
2023-02-03T00:24:33.168Z,953.77
2023-02-03T00:24:44.131Z,953.80
2023-02-03T00:24:55.088Z,953.80
2023-02-03T00:25:07.111Z,953.78
2023-02-03T00:25:18.210Z,953.77
2023-02-03T00:25:30.126Z,953.77
2023-02-03T00:25:42.143Z,953.77
2023-02-03T00:25:53.108Z,953.76
2023-02-03T00:26:05.091Z,953.75
2023-02-03T00:26:16.091Z,953.73
2023-02-03T00:26:27.088Z,953.72
2023-02-03T00:26:39.105Z,953.71
2023-02-03T00:26:50.081Z,953.68
2023-02-03T00:27:02.097Z,953.64
2023-02-03T00:27:13.092Z,953.60
2023-02-03T00:27:24.147Z,953.59
2023-02-03T00:27:35.121Z,953.56
2023-02-03T00:27:46.182Z,953.52
2023-02-03T00:27:58.187Z,953.49
2023-02-03T00:28:10.301Z,953.47
2023-02-03T00:28:22.150Z,953.47
2023-02-03T00:28:34.158Z,953.45
2023-02-03T00:28:46.170Z,953.44
2023-02-03T00:28:58.172Z,953.44
2023-02-03T00:29:09.129Z,953.45
2023-02-03T00:29:21.140Z,953.46
2023-02-03T00:29:33.145Z,953.47
2023-02-03T00:29:46.040Z,953.47
2023-02-03T00:29:56.197Z,953.45
2023-02-03T00:30:07.105Z,953.44
2023-02-03T00:30:19.100Z,953.46
2023-02-03T00:30:31.108Z,953.47
2023-02-03T00:30:43.110Z,953.47
2023-02-03T00:30:55.142Z,953.47
2023-02-03T00:31:07.237Z,953.47
2023-02-03T00:31:18.216Z,953.45
2023-02-03T00:31:30.196Z,953.46
2023-02-03T00:31:41.207Z,953.47
2023-02-03T00:31:52.195Z,953.46
2023-02-03T00:32:04.274Z,953.45
2023-02-03T00:32:16.331Z,953.46
2023-02-03T00:32:28.240Z,953.47
2023-02-03T00:32:39.154Z,953.44
2023-02-03T00:32:51.094Z,953.43
2023-02-03T00:33:02.085Z,953.47
2023-02-03T00:33:13.089Z,953.49
2023-02-03T00:33:24.167Z,953.50
2023-02-03T00:33:36.080Z,953.49
2023-02-03T00:33:47.129Z,953.50
2023-02-03T00:33:59.145Z,953.52
2023-02-03T00:34:11.173Z,953.53
2023-02-03T00:34:23.165Z,953.56
2023-02-03T00:34:34.124Z,953.57
2023-02-03T00:34:46.133Z,953.59
2023-02-03T00:34:58.162Z,953.59
2023-02-03T00:35:10.166Z,953.60
2023-02-03T00:35:22.087Z,953.61
2023-02-03T00:35:33.140Z,953.63
2023-02-03T00:35:44.095Z,953.65
2023-02-03T00:35:56.105Z,953.65
2023-02-03T00:36:07.182Z,953.62
2023-02-03T00:36:19.110Z,953.61
2023-02-03T00:36:31.115Z,953.61
2023-02-03T00:36:43.233Z,953.61
2023-02-03T00:36:54.087Z,953.61
2023-02-03T00:37:05.126Z,953.64
2023-02-03T00:37:17.140Z,953.64
2023-02-03T00:37:29.160Z,953.61
2023-02-03T00:37:41.107Z,953.58
2023-02-03T00:37:53.114Z,953.56
2023-02-03T00:38:04.095Z,953.54
2023-02-03T00:38:15.147Z,953.52
2023-02-03T00:38:26.101Z,953.53
2023-02-03T00:38:37.165Z,953.53
2023-02-03T00:38:49.078Z,953.54
2023-02-03T00:39:00.147Z,953.51
2023-02-03T00:39:12.141Z,953.51
2023-02-03T00:39:23.103Z,953.50
2023-02-03T00:39:34.084Z,953.47
2023-02-03T00:39:46.035Z,953.47
2023-02-03T00:39:56.145Z,953.49
2023-02-03T00:40:08.115Z,953.45
2023-02-03T00:40:19.105Z,953.45
2023-02-03T00:40:31.120Z,953.47
2023-02-03T00:40:42.087Z,953.52
2023-02-03T00:40:53.119Z,953.49
2023-02-03T00:41:05.166Z,953.43
2023-02-03T00:41:16.119Z,953.40
2023-02-03T00:41:28.116Z,953.40
2023-02-03T00:41:40.126Z,953.41
2023-02-03T00:41:51.105Z,953.39
2023-02-03T00:42:02.163Z,953.38
2023-02-03T00:42:13.120Z,953.33
2023-02-03T00:42:25.122Z,953.35
2023-02-03T00:42:37.147Z,953.35
2023-02-03T00:42:48.101Z,953.34
2023-02-03T00:43:00.111Z,953.36
2023-02-03T00:43:12.117Z,953.37
2023-02-03T00:43:24.139Z,953.38
2023-02-03T00:43:36.153Z,953.41
2023-02-03T00:43:48.161Z,953.40
2023-02-03T00:44:00.159Z,953.39
2023-02-03T00:44:12.118Z,953.39
2023-02-03T00:44:24.129Z,953.42
2023-02-03T00:44:36.138Z,953.43
2023-02-03T00:44:48.142Z,953.41
2023-02-03T00:45:00.167Z,953.41
2023-02-03T00:45:11.120Z,953.42
2023-02-03T00:45:23.136Z,953.43
2023-02-03T00:45:35.209Z,953.45
2023-02-03T00:45:47.170Z,953.48
2023-02-03T00:45:58.146Z,953.49
2023-02-03T00:46:10.174Z,953.49
2023-02-03T00:46:22.108Z,953.50
2023-02-03T00:46:33.167Z,953.50
2023-02-03T00:46:45.114Z,953.50
2023-02-03T00:46:56.171Z,953.52
2023-02-03T00:47:07.128Z,953.48
2023-02-03T00:47:18.082Z,953.48
2023-02-03T00:47:29.126Z,953.49
2023-02-03T00:47:41.140Z,953.48
2023-02-03T00:47:53.143Z,953.46
2023-02-03T00:48:05.157Z,953.47
2023-02-03T00:48:17.171Z,953.48
2023-02-03T00:48:28.131Z,953.49
2023-02-03T00:48:40.144Z,953.48
2023-02-03T00:48:51.102Z,953.49
2023-02-03T00:49:03.111Z,953.50
2023-02-03T00:49:15.129Z,953.50
2023-02-03T00:49:26.101Z,953.49
2023-02-03T00:49:37.144Z,953.48
2023-02-03T00:49:48.102Z,953.49
2023-02-03T00:50:00.154Z,953.48
2023-02-03T00:50:11.137Z,953.46
2023-02-03T00:50:22.085Z,953.48
2023-02-03T00:50:33.139Z,953.50
2023-02-03T00:50:45.169Z,953.50
2023-02-03T00:50:57.100Z,953.51
2023-02-03T00:51:08.086Z,953.51
2023-02-03T00:51:20.092Z,953.50
2023-02-03T00:51:31.091Z,953.51
2023-02-03T00:51:42.082Z,953.51
2023-02-03T00:51:53.125Z,953.52
2023-02-03T00:52:05.145Z,953.53
2023-02-03T00:52:16.102Z,953.53
2023-02-03T00:52:27.170Z,953.51
2023-02-03T00:52:39.125Z,953.51
2023-02-03T00:52:51.130Z,953.53
2023-02-03T00:53:02.086Z,953.53
2023-02-03T00:53:13.126Z,953.54
2023-02-03T00:53:25.131Z,953.53
2023-02-03T00:53:37.133Z,953.50
2023-02-03T00:53:49.175Z,953.50
2023-02-03T00:54:01.133Z,953.50
2023-02-03T00:54:12.073Z,953.51
2023-02-03T00:54:23.084Z,953.51
2023-02-03T00:54:34.115Z,953.51
2023-02-03T00:54:46.113Z,953.51
2023-02-03T00:54:58.167Z,953.50
2023-02-03T00:55:09.116Z,953.47
2023-02-03T00:55:20.086Z,953.49
2023-02-03T00:55:31.144Z,953.50
2023-02-03T00:55:43.147Z,953.48
2023-02-03T00:55:55.160Z,953.48
2023-02-03T00:56:07.168Z,953.47
2023-02-03T00:56:19.077Z,953.47
2023-02-03T00:56:30.171Z,953.47
2023-02-03T00:56:41.155Z,953.44
2023-02-03T00:56:52.124Z,953.43
2023-02-03T00:57:03.084Z,953.45
2023-02-03T00:57:15.101Z,953.45
2023-02-03T00:57:27.105Z,953.43
2023-02-03T00:57:38.170Z,953.43
2023-02-03T00:57:50.166Z,953.44
2023-02-03T00:58:01.123Z,953.47
2023-02-03T00:58:13.123Z,953.46
2023-02-03T00:58:25.136Z,953.47
2023-02-03T00:58:36.081Z,953.46
2023-02-03T00:58:48.107Z,953.45
2023-02-03T00:58:59.165Z,953.44
2023-02-03T00:59:10.127Z,953.45
2023-02-03T00:59:22.130Z,953.44
2023-02-03T00:59:34.146Z,953.44
2023-02-03T00:59:46.149Z,953.48
2023-02-03T00:59:58.154Z,953.50
2023-02-03T01:00:09.103Z,953.48
2023-02-03T01:00:21.106Z,953.43
2023-02-03T01:00:33.126Z,953.40
2023-02-03T01:00:44.165Z,953.45
2023-02-03T01:00:56.216Z,953.45
2023-02-03T01:01:08.222Z,953.44
2023-02-03T01:01:19.186Z,953.45
2023-02-03T01:01:31.199Z,953.43
2023-02-03T01:01:42.074Z,953.45
2023-02-03T01:01:53.183Z,953.47
2023-02-03T01:02:05.264Z,953.43
2023-02-03T01:02:17.194Z,953.45
2023-02-03T01:02:28.193Z,953.44
2023-02-03T01:02:40.160Z,953.46
2023-02-03T01:02:51.106Z,953.43
2023-02-03T01:03:02.081Z,953.41
2023-02-03T01:03:13.135Z,953.41
2023-02-03T01:03:25.141Z,953.42
2023-02-03T01:03:37.157Z,953.47
2023-02-03T01:03:49.163Z,953.45
2023-02-03T01:04:01.169Z,953.42
2023-02-03T01:04:13.082Z,953.43
2023-02-03T01:04:24.155Z,953.45
2023-02-03T01:04:36.160Z,953.43
2023-02-03T01:04:48.161Z,953.43
2023-02-03T01:04:59.125Z,953.43
2023-02-03T01:05:11.121Z,953.43
2023-02-03T01:05:22.101Z,953.45
2023-02-03T01:05:33.174Z,953.42
2023-02-03T01:05:44.132Z,953.40
2023-02-03T01:05:55.085Z,953.39
2023-02-03T01:06:06.132Z,953.36
2023-02-03T01:06:18.152Z,953.33
2023-02-03T01:06:29.102Z,953.34
2023-02-03T01:06:41.110Z,953.33
2023-02-03T01:06:52.161Z,953.32
2023-02-03T01:07:04.165Z,953.31
2023-02-03T01:07:16.166Z,953.28
2023-02-03T01:07:28.085Z,953.29
2023-02-03T01:07:39.129Z,953.29
2023-02-03T01:07:50.123Z,953.28
2023-02-03T01:08:02.163Z,953.31
2023-02-03T01:08:13.125Z,953.32
2023-02-03T01:08:25.149Z,953.30
2023-02-03T01:08:37.104Z,953.28
2023-02-03T01:08:49.126Z,953.29
2023-02-03T01:09:00.129Z,953.30
2023-02-03T01:09:11.120Z,953.31
2023-02-03T01:09:22.175Z,953.30
2023-02-03T01:09:33.137Z,953.30
2023-02-03T01:09:46.040Z,953.30
2023-02-03T01:09:57.101Z,953.30
2023-02-03T01:10:08.172Z,953.31
2023-02-03T01:10:20.078Z,953.34
2023-02-03T01:10:31.140Z,953.34
2023-02-03T01:10:43.153Z,953.35
2023-02-03T01:10:54.106Z,953.35
2023-02-03T01:11:06.135Z,953.35
2023-02-03T01:11:17.095Z,953.35
2023-02-03T01:11:28.152Z,953.36
2023-02-03T01:11:39.098Z,953.35
2023-02-03T01:11:51.137Z,953.32
2023-02-03T01:12:03.149Z,953.37
2023-02-03T01:12:15.163Z,953.36
2023-02-03T01:12:27.076Z,953.37
2023-02-03T01:12:38.117Z,953.39
2023-02-03T01:12:50.145Z,953.37
2023-02-03T01:13:01.106Z,953.35
2023-02-03T01:13:13.106Z,953.33
2023-02-03T01:13:24.086Z,953.33
2023-02-03T01:13:36.094Z,953.34
2023-02-03T01:13:48.102Z,953.33
2023-02-03T01:14:00.133Z,953.32
2023-02-03T01:14:11.089Z,953.34
2023-02-03T01:14:23.105Z,953.31
2023-02-03T01:14:35.110Z,953.28
2023-02-03T01:14:47.116Z,953.28
2023-02-03T01:14:58.114Z,953.28
2023-02-03T01:15:10.119Z,953.26
2023-02-03T01:15:22.128Z,953.25
2023-02-03T01:15:33.119Z,953.21
2023-02-03T01:15:44.086Z,953.21
2023-02-03T01:15:56.100Z,953.23
2023-02-03T01:16:07.093Z,953.24
2023-02-03T01:16:18.233Z,953.26
2023-02-03T01:16:30.191Z,953.28
2023-02-03T01:16:42.126Z,953.29
2023-02-03T01:16:53.156Z,953.27
2023-02-03T01:17:04.150Z,953.26
2023-02-03T01:17:16.118Z,953.24
2023-02-03T01:17:28.125Z,953.26
2023-02-03T01:17:40.125Z,953.24
2023-02-03T01:17:52.125Z,953.23
2023-02-03T01:18:04.145Z,953.25
2023-02-03T01:18:15.112Z,953.28
2023-02-03T01:18:27.108Z,953.29
2023-02-03T01:18:38.196Z,953.29
2023-02-03T01:18:50.126Z,953.32
2023-02-03T01:19:01.092Z,953.33
2023-02-03T01:19:12.147Z,953.32
2023-02-03T01:19:24.186Z,953.29
2023-02-03T01:19:35.132Z,953.30
2023-02-03T01:19:47.133Z,953.29
2023-02-03T01:19:58.103Z,953.30
2023-02-03T01:20:10.147Z,953.31
2023-02-03T01:20:21.101Z,953.30
2023-02-03T01:20:32.165Z,953.30
2023-02-03T01:20:44.080Z,953.29
2023-02-03T01:20:55.126Z,953.28
2023-02-03T01:21:07.133Z,953.27
2023-02-03T01:21:18.095Z,953.27
2023-02-03T01:21:29.151Z,953.27
2023-02-03T01:21:40.119Z,953.29
2023-02-03T01:21:52.126Z,953.31
2023-02-03T01:22:04.144Z,953.31
2023-02-03T01:22:15.107Z,953.32
2023-02-03T01:22:27.130Z,953.33
2023-02-03T01:22:39.136Z,953.34
2023-02-03T01:22:51.143Z,953.36
2023-02-03T01:23:02.108Z,953.38
2023-02-03T01:23:13.085Z,953.35
2023-02-03T01:23:24.138Z,953.36
2023-02-03T01:23:35.173Z,953.36
2023-02-03T01:23:46.133Z,953.36
2023-02-03T01:23:58.143Z,953.36
2023-02-03T01:24:10.150Z,953.33
2023-02-03T01:24:22.165Z,953.32
2023-02-03T01:24:34.072Z,953.33
2023-02-03T01:24:46.061Z,953.34
2023-02-03T01:24:57.103Z,953.34
2023-02-03T01:25:09.109Z,953.34
2023-02-03T01:25:21.112Z,953.33
2023-02-03T01:25:32.077Z,953.34
2023-02-03T01:25:43.139Z,953.34
2023-02-03T01:25:55.149Z,953.35
2023-02-03T01:26:06.112Z,953.35
2023-02-03T01:26:17.091Z,953.35
2023-02-03T01:26:28.144Z,953.34
2023-02-03T01:26:40.156Z,953.35
2023-02-03T01:26:51.117Z,953.35
2023-02-03T01:27:03.122Z,953.36
2023-02-03T01:27:15.132Z,953.37
2023-02-03T01:27:27.133Z,953.34
2023-02-03T01:27:38.156Z,953.34
2023-02-03T01:27:49.230Z,953.36
2023-02-03T01:28:01.207Z,953.36
2023-02-03T01:28:12.155Z,953.36
2023-02-03T01:28:24.106Z,953.34
2023-02-03T01:28:36.104Z,953.31
2023-02-03T01:28:47.074Z,953.32
2023-02-03T01:28:58.117Z,953.34
2023-02-03T01:29:10.139Z,953.39
2023-02-03T01:29:22.159Z,953.43
2023-02-03T01:29:34.164Z,953.41
2023-02-03T01:29:46.053Z,953.41
2023-02-03T01:29:57.106Z,953.41
2023-02-03T01:30:08.092Z,953.35
2023-02-03T01:30:19.167Z,953.37
2023-02-03T01:30:30.275Z,953.37
2023-02-03T01:30:41.214Z,953.34
2023-02-03T01:30:52.220Z,953.33
2023-02-03T01:31:04.230Z,953.32
2023-02-03T01:31:16.263Z,953.32
2023-02-03T01:31:27.153Z,953.36
2023-02-03T01:31:38.217Z,953.38
2023-02-03T01:31:49.334Z,953.36
2023-02-03T01:32:01.292Z,953.35
2023-02-03T01:32:12.111Z,953.34
2023-02-03T01:32:24.127Z,953.35
2023-02-03T01:32:36.166Z,953.36
2023-02-03T01:32:47.100Z,953.35
2023-02-03T01:32:58.102Z,953.35
2023-02-03T01:33:09.331Z,953.36
2023-02-03T01:33:21.145Z,953.39
2023-02-03T01:33:33.164Z,953.40
2023-02-03T01:33:44.128Z,953.40
2023-02-03T01:33:56.148Z,953.37
2023-02-03T01:34:08.164Z,953.34
2023-02-03T01:34:19.122Z,953.34
2023-02-03T01:34:31.153Z,953.35
2023-02-03T01:34:42.102Z,953.35
2023-02-03T01:34:53.079Z,953.35
2023-02-03T01:35:04.117Z,953.37
2023-02-03T01:35:16.133Z,953.37
2023-02-03T01:35:28.131Z,953.35
2023-02-03T01:35:39.082Z,953.35
2023-02-03T01:35:50.116Z,953.37
2023-02-03T01:36:02.145Z,953.36
2023-02-03T01:36:14.158Z,953.35
2023-02-03T01:36:25.136Z,953.36
2023-02-03T01:36:37.142Z,953.33
2023-02-03T01:36:49.175Z,953.29
2023-02-03T01:37:01.094Z,953.28
2023-02-03T01:37:13.119Z,953.30
2023-02-03T01:37:25.117Z,953.29
2023-02-03T01:37:37.144Z,953.27
2023-02-03T01:37:48.093Z,953.27
2023-02-03T01:38:00.112Z,953.30
2023-02-03T01:38:12.126Z,953.31
2023-02-03T01:38:23.079Z,953.30
2023-02-03T01:38:34.142Z,953.30
2023-02-03T01:38:45.113Z,953.30
2023-02-03T01:38:56.189Z,953.31
2023-02-03T01:39:08.157Z,953.28
2023-02-03T01:39:19.101Z,953.27
2023-02-03T01:39:30.112Z,953.28
2023-02-03T01:39:42.122Z,953.30
2023-02-03T01:39:54.133Z,953.28
2023-02-03T01:40:05.089Z,953.28
2023-02-03T01:40:16.174Z,953.30
2023-02-03T01:40:28.456Z,953.30
2023-02-03T01:40:39.127Z,953.29
2023-02-03T01:40:51.132Z,953.28
2023-02-03T01:41:03.157Z,953.30
2023-02-03T01:41:15.073Z,953.29
2023-02-03T01:41:26.148Z,953.30
2023-02-03T01:41:37.121Z,953.28
2023-02-03T01:41:49.137Z,953.26
2023-02-03T01:42:01.142Z,953.27
2023-02-03T01:42:13.174Z,953.29
2023-02-03T01:42:24.129Z,953.28
2023-02-03T01:42:35.130Z,953.27
2023-02-03T01:42:47.156Z,953.27
2023-02-03T01:42:58.120Z,953.26
2023-02-03T01:43:09.079Z,953.22
2023-02-03T01:43:20.126Z,953.22
2023-02-03T01:43:31.073Z,953.26
2023-02-03T01:43:42.172Z,953.28
2023-02-03T01:43:53.141Z,953.29
2023-02-03T01:44:04.101Z,953.28
2023-02-03T01:44:16.113Z,953.25
2023-02-03T01:44:28.114Z,953.23
2023-02-03T01:44:40.127Z,953.26
2023-02-03T01:44:52.549Z,953.27
2023-02-03T01:45:04.105Z,953.27
2023-02-03T01:45:15.088Z,953.29
2023-02-03T01:45:26.135Z,953.26
2023-02-03T01:45:37.135Z,953.25
2023-02-03T01:45:48.117Z,953.28
2023-02-03T01:45:59.240Z,953.27
2023-02-03T01:46:11.203Z,953.29
2023-02-03T01:46:22.130Z,953.31
2023-02-03T01:46:33.097Z,953.34
2023-02-03T01:46:45.106Z,953.31
2023-02-03T01:46:57.099Z,953.29
2023-02-03T01:47:09.145Z,953.32
2023-02-03T01:47:20.103Z,953.30
2023-02-03T01:47:32.100Z,953.26
2023-02-03T01:47:44.122Z,953.28
2023-02-03T01:47:56.132Z,953.27
2023-02-03T01:48:08.161Z,953.28
2023-02-03T01:48:19.107Z,953.30
2023-02-03T01:48:31.105Z,953.27
2023-02-03T01:48:43.115Z,953.25
2023-02-03T01:48:54.098Z,953.27
2023-02-03T01:49:06.109Z,953.24
2023-02-03T01:49:17.083Z,953.23
2023-02-03T01:49:28.149Z,953.25
2023-02-03T01:49:39.120Z,953.27
2023-02-03T01:49:51.118Z,953.23
2023-02-03T01:50:03.137Z,953.20
2023-02-03T01:50:14.110Z,953.23
2023-02-03T01:50:26.614Z,953.22
2023-02-03T01:50:37.081Z,953.21
2023-02-03T01:50:48.122Z,953.21
2023-02-03T01:50:59.095Z,953.19
2023-02-03T01:51:10.077Z,953.19
2023-02-03T01:51:21.139Z,953.21
2023-02-03T01:51:33.142Z,953.19
2023-02-03T01:51:44.101Z,953.17
2023-02-03T01:51:56.107Z,953.18
2023-02-03T01:52:08.120Z,953.20
2023-02-03T01:52:19.090Z,953.20
2023-02-03T01:52:30.141Z,953.20
2023-02-03T01:52:42.166Z,953.16
2023-02-03T01:52:54.163Z,953.15
2023-02-03T01:53:05.123Z,953.14
2023-02-03T01:53:16.099Z,953.13
2023-02-03T01:53:27.166Z,953.12
2023-02-03T01:53:39.074Z,953.14
2023-02-03T01:53:50.134Z,953.16
2023-02-03T01:54:01.113Z,953.16
2023-02-03T01:54:12.166Z,953.14
2023-02-03T01:54:24.080Z,953.14
2023-02-03T01:54:36.104Z,953.14
2023-02-03T01:54:47.172Z,953.15
2023-02-03T01:54:59.079Z,953.15
2023-02-03T01:55:10.148Z,953.15
2023-02-03T01:55:22.150Z,953.15
2023-02-03T01:55:34.163Z,953.16
2023-02-03T01:55:46.167Z,953.20
2023-02-03T01:55:57.130Z,953.15
2023-02-03T01:56:08.127Z,953.14
2023-02-03T01:56:19.092Z,953.14
2023-02-03T01:56:31.112Z,953.17
2023-02-03T01:56:42.181Z,953.16
2023-02-03T01:56:54.084Z,953.20
2023-02-03T01:57:06.100Z,953.19
2023-02-03T01:57:17.150Z,953.22
2023-02-03T01:57:28.127Z,953.24
2023-02-03T01:57:39.102Z,953.25
2023-02-03T01:57:50.173Z,953.26
2023-02-03T01:58:01.128Z,953.26
2023-02-03T01:58:13.138Z,953.27
2023-02-03T01:58:25.151Z,953.28
2023-02-03T01:58:37.160Z,953.29
2023-02-03T01:58:49.081Z,953.29
2023-02-03T01:59:00.148Z,953.28
2023-02-03T01:59:12.158Z,953.29
2023-02-03T01:59:23.128Z,953.29
2023-02-03T01:59:35.150Z,953.29
2023-02-03T01:59:46.105Z,953.28
2023-02-03T01:59:58.119Z,953.27
2023-02-03T02:00:09.120Z,953.29
2023-02-03T02:00:20.086Z,953.27
2023-02-03T02:00:32.108Z,953.26
2023-02-03T02:00:43.174Z,953.27
2023-02-03T02:00:54.128Z,953.27
2023-02-03T02:01:05.181Z,953.24
2023-02-03T02:01:19.513Z,953.23
2023-02-03T02:01:28.130Z,953.25
2023-02-03T02:01:39.105Z,953.21
2023-02-03T02:01:50.152Z,953.21
2023-02-03T02:02:01.120Z,953.22
2023-02-03T02:02:12.129Z,953.22
2023-02-03T02:02:23.180Z,953.20
2023-02-03T02:02:35.152Z,953.20
2023-02-03T02:02:46.182Z,953.20
2023-02-03T02:02:58.131Z,953.22
2023-02-03T02:03:09.087Z,953.21
2023-02-03T02:03:20.161Z,953.18
2023-02-03T02:03:31.118Z,953.20
2023-02-03T02:03:43.125Z,953.18
2023-02-03T02:03:55.119Z,953.16
2023-02-03T02:04:07.137Z,953.13
2023-02-03T02:04:18.102Z,953.11
2023-02-03T02:04:30.108Z,953.17
2023-02-03T02:04:41.087Z,953.16
2023-02-03T02:04:52.116Z,953.13
2023-02-03T02:05:04.127Z,953.09
2023-02-03T02:05:15.081Z,953.10
2023-02-03T02:05:26.129Z,953.14
2023-02-03T02:05:37.125Z,953.15
2023-02-03T02:05:49.126Z,953.17
2023-02-03T02:06:01.140Z,953.19
2023-02-03T02:06:13.145Z,953.20
2023-02-03T02:06:25.156Z,953.17
2023-02-03T02:06:37.167Z,953.15
2023-02-03T02:06:49.163Z,953.10
2023-02-03T02:07:00.124Z,953.10
2023-02-03T02:07:12.143Z,953.14
2023-02-03T02:07:23.101Z,953.13
2023-02-03T02:07:34.169Z,953.14
2023-02-03T02:07:46.188Z,953.15
2023-02-03T02:07:58.088Z,953.15
2023-02-03T02:08:09.164Z,953.12
2023-02-03T02:08:21.197Z,953.15
2023-02-03T02:08:33.105Z,953.15
2023-02-03T02:08:44.177Z,953.10
2023-02-03T02:08:55.130Z,953.14
2023-02-03T02:09:07.161Z,953.16
2023-02-03T02:09:18.131Z,953.18
2023-02-03T02:09:29.100Z,953.15
2023-02-03T02:09:40.169Z,953.12
2023-02-03T02:09:52.161Z,953.17
2023-02-03T02:10:04.159Z,953.20
2023-02-03T02:10:16.170Z,953.18
2023-02-03T02:10:27.465Z,953.16
2023-02-03T02:10:39.140Z,953.14
2023-02-03T02:10:51.165Z,953.07
2023-02-03T02:11:02.128Z,953.08
2023-02-03T02:11:14.136Z,953.11
2023-02-03T02:11:25.106Z,953.12
2023-02-03T02:11:37.104Z,953.10
2023-02-03T02:11:49.121Z,953.07
2023-02-03T02:12:01.124Z,953.10
2023-02-03T02:12:13.127Z,953.07
2023-02-03T02:12:25.129Z,953.07
2023-02-03T02:12:36.096Z,953.05
2023-02-03T02:12:47.083Z,953.07
2023-02-03T02:12:58.073Z,953.06
2023-02-03T02:13:09.142Z,953.07
2023-02-03T02:13:21.143Z,953.11
2023-02-03T02:13:32.103Z,953.10
2023-02-03T02:13:44.108Z,953.10
2023-02-03T02:13:56.138Z,953.08
2023-02-03T02:14:08.141Z,953.07
2023-02-03T02:14:19.100Z,953.06
2023-02-03T02:14:31.117Z,953.09
2023-02-03T02:14:43.125Z,953.09
2023-02-03T02:14:55.118Z,953.03
2023-02-03T02:15:07.131Z,953.03
2023-02-03T02:15:18.128Z,953.01
2023-02-03T02:15:29.135Z,953.02
2023-02-03T02:15:40.118Z,953.05
2023-02-03T02:15:51.121Z,953.05
2023-02-03T02:16:02.208Z,953.06
2023-02-03T02:16:14.208Z,953.07
2023-02-03T02:16:26.122Z,953.07
2023-02-03T02:16:38.138Z,953.06
2023-02-03T02:16:50.142Z,953.01
2023-02-03T02:17:02.155Z,952.95
2023-02-03T02:17:13.121Z,952.97
2023-02-03T02:17:25.123Z,953.00
2023-02-03T02:17:37.130Z,953.03
2023-02-03T02:17:49.143Z,953.02
2023-02-03T02:18:00.114Z,953.01
2023-02-03T02:18:12.127Z,952.99
2023-02-03T02:18:24.149Z,952.97
2023-02-03T02:18:36.168Z,952.99
2023-02-03T02:18:48.095Z,952.96
2023-02-03T02:19:00.135Z,952.97
2023-02-03T02:19:11.085Z,952.96
2023-02-03T02:19:22.136Z,952.93
2023-02-03T02:19:34.137Z,952.96
2023-02-03T02:19:45.230Z,952.93
2023-02-03T02:19:56.104Z,952.93
2023-02-03T02:20:07.102Z,952.93
2023-02-03T02:20:20.628Z,952.90
2023-02-03T02:20:30.135Z,952.90
2023-02-03T02:20:41.089Z,952.91
2023-02-03T02:20:52.169Z,952.90
2023-02-03T02:21:03.125Z,952.92
2023-02-03T02:21:15.119Z,952.93
2023-02-03T02:21:26.092Z,952.94
2023-02-03T02:21:38.109Z,952.94
2023-02-03T02:21:50.122Z,952.91
2023-02-03T02:22:01.090Z,952.93
2023-02-03T02:22:12.147Z,952.94
2023-02-03T02:22:23.121Z,952.96
2023-02-03T02:22:34.104Z,952.93
2023-02-03T02:22:45.171Z,952.92
2023-02-03T02:22:57.073Z,952.88
2023-02-03T02:23:08.140Z,952.90
2023-02-03T02:23:19.102Z,952.90
2023-02-03T02:23:31.118Z,952.85